Aviation Digital Data Service (ADDS)

Output produced by METARs form (2141 UTC 25 February 2018)
found at http://aviationweather.gov/adds/metars/
 
KJHW 252110Z 2521/2618 25016G26KT P6SM SCT035 BKN250 
     FM260200 26009KT P6SM FEW250 
     FM261300 27010G16KT P6SM FEW250 AMD NOT SKED